createdAt,value
2017-12-16T00:00:12.500Z,2.42
2017-12-16T00:01:14.957Z,2.33
2017-12-16T00:02:17.432Z,2.25
2017-12-16T00:03:19.905Z,2.31
2017-12-16T00:04:22.363Z,2.36
2017-12-16T00:05:24.833Z,2.31
2017-12-16T00:06:27.289Z,2.30
2017-12-16T00:07:29.771Z,2.24
2017-12-16T00:08:32.249Z,2.15
2017-12-16T00:09:34.715Z,2.09
2017-12-16T00:10:37.195Z,2.04
2017-12-16T00:11:39.655Z,2.00
2017-12-16T00:12:42.152Z,2.07
2017-12-16T00:13:45.550Z,2.40
2017-12-16T00:14:48.026Z,2.51
2017-12-16T00:15:50.490Z,2.38
2017-12-16T00:16:52.957Z,2.16
2017-12-16T00:17:55.464Z,2.09
2017-12-16T00:18:57.932Z,2.03
2017-12-16T00:20:00.390Z,2.21
2017-12-16T00:21:02.861Z,2.42
2017-12-16T00:22:05.336Z,2.28
2017-12-16T00:23:07.828Z,2.19
2017-12-16T00:24:10.291Z,2.20
2017-12-16T00:25:12.746Z,2.05
2017-12-16T00:26:15.200Z,2.12
2017-12-16T00:27:17.669Z,2.40
2017-12-16T00:28:20.150Z,2.55
2017-12-16T00:29:22.621Z,2.60
2017-12-16T00:30:25.085Z,2.59
2017-12-16T00:31:27.543Z,2.56
2017-12-16T00:32:30.021Z,2.33
2017-12-16T00:33:32.532Z,2.28
2017-12-16T00:34:34.990Z,2.19
2017-12-16T00:35:37.461Z,2.10
2017-12-16T00:36:39.942Z,1.98
2017-12-16T00:37:42.398Z,1.90
2017-12-16T00:38:44.880Z,1.87
2017-12-16T00:39:47.334Z,1.85
2017-12-16T00:40:49.808Z,1.81
2017-12-16T00:41:52.273Z,1.77
2017-12-16T00:42:54.749Z,1.80
2017-12-16T00:43:57.236Z,1.81
2017-12-16T00:44:59.690Z,1.81
2017-12-16T00:46:02.141Z,1.81
2017-12-16T00:47:04.622Z,1.82
2017-12-16T00:48:07.088Z,1.82
2017-12-16T00:49:09.576Z,1.83
2017-12-16T00:50:12.036Z,1.83
2017-12-16T00:51:14.494Z,1.87
2017-12-16T00:52:16.968Z,1.87
2017-12-16T00:53:19.457Z,1.85
2017-12-16T00:54:21.949Z,1.84
2017-12-16T00:55:24.421Z,1.99
2017-12-16T00:56:26.884Z,2.38
2017-12-16T00:57:29.345Z,2.30
2017-12-16T00:58:31.808Z,2.19
2017-12-16T00:59:34.305Z,2.36
2017-12-16T01:00:36.762Z,2.54
2017-12-16T01:01:39.233Z,2.63
2017-12-16T01:02:41.705Z,2.55
2017-12-16T01:03:44.181Z,2.40
2017-12-16T01:04:46.659Z,2.40
2017-12-16T01:05:49.128Z,2.40
2017-12-16T01:06:51.609Z,2.30
2017-12-16T01:07:54.077Z,2.39
2017-12-16T01:08:56.534Z,2.42
2017-12-16T01:09:59.028Z,2.36
2017-12-16T01:11:01.477Z,2.27
2017-12-16T01:12:03.935Z,2.32
2017-12-16T01:13:06.408Z,2.42
2017-12-16T01:14:08.863Z,2.31
2017-12-16T01:15:11.357Z,2.22
2017-12-16T01:16:13.815Z,2.27
2017-12-16T01:17:16.285Z,2.21
2017-12-16T01:18:18.760Z,2.17
2017-12-16T01:19:21.237Z,2.16
2017-12-16T01:20:23.710Z,2.13
2017-12-16T01:21:26.180Z,2.11
2017-12-16T01:22:28.653Z,2.10
2017-12-16T01:23:31.173Z,2.15
2017-12-16T01:24:33.631Z,2.14
2017-12-16T01:25:36.134Z,2.21
2017-12-16T01:26:38.604Z,2.37
2017-12-16T01:27:41.084Z,2.44
2017-12-16T01:28:43.546Z,2.46
2017-12-16T01:29:46.024Z,2.41
2017-12-16T01:30:48.512Z,2.34
2017-12-16T01:31:50.970Z,2.45
2017-12-16T01:32:53.470Z,2.38
2017-12-16T01:34:07.924Z,2.42
2017-12-16T01:35:22.084Z,2.35
2017-12-16T01:36:36.361Z,2.29
2017-12-16T01:37:50.917Z,2.24
2017-12-16T01:38:53.389Z,2.24
2017-12-16T01:39:55.861Z,2.20
2017-12-16T01:40:58.389Z,2.21
2017-12-16T01:42:00.904Z,2.20
2017-12-16T01:43:03.384Z,2.21
2017-12-16T01:44:05.843Z,2.19
2017-12-16T01:45:08.318Z,2.17
2017-12-16T01:46:10.770Z,2.17
2017-12-16T01:47:13.287Z,2.18
2017-12-16T01:48:15.776Z,2.19
2017-12-16T01:49:18.238Z,2.18
2017-12-16T01:50:20.699Z,2.20
2017-12-16T01:51:23.188Z,2.20
2017-12-16T01:52:25.665Z,2.20
2017-12-16T01:53:28.123Z,2.20
2017-12-16T01:54:30.599Z,2.22
2017-12-16T01:55:33.056Z,2.22
2017-12-16T01:56:35.510Z,2.23
2017-12-16T01:57:37.986Z,2.21
2017-12-16T01:58:40.446Z,2.21
2017-12-16T01:59:42.910Z,2.19
2017-12-16T02:00:45.366Z,2.25
2017-12-16T02:01:47.841Z,2.28
2017-12-16T02:02:50.324Z,2.38
2017-12-16T02:03:52.781Z,2.33
2017-12-16T02:04:55.243Z,2.30
2017-12-16T02:05:57.698Z,2.31
2017-12-16T02:07:00.158Z,2.43
2017-12-16T02:08:02.626Z,2.39
2017-12-16T02:09:05.109Z,2.38
2017-12-16T02:10:07.566Z,2.44
2017-12-16T02:11:10.033Z,2.35
2017-12-16T02:12:12.496Z,2.39
2017-12-16T02:13:14.985Z,2.39
2017-12-16T02:14:17.488Z,2.41
2017-12-16T02:15:19.946Z,2.44
2017-12-16T02:16:22.432Z,2.45
2017-12-16T02:17:24.901Z,2.56
2017-12-16T02:18:27.394Z,2.52
2017-12-16T02:19:29.868Z,2.41
2017-12-16T02:20:32.341Z,2.39
2017-12-16T02:21:34.809Z,2.37
2017-12-16T02:22:37.285Z,2.36
2017-12-16T02:23:39.758Z,2.29
2017-12-16T02:24:42.232Z,2.30
2017-12-16T02:25:44.713Z,2.30
2017-12-16T02:26:47.188Z,2.27
2017-12-16T02:27:49.656Z,2.23
2017-12-16T02:28:52.146Z,2.22
2017-12-16T02:29:54.618Z,2.38
2017-12-16T02:30:57.094Z,2.62
2017-12-16T02:31:59.568Z,2.53
2017-12-16T02:33:02.032Z,2.43
2017-12-16T02:34:04.531Z,2.36
2017-12-16T02:35:06.986Z,2.29
2017-12-16T02:36:09.459Z,2.29
2017-12-16T02:37:11.942Z,2.29
2017-12-16T02:38:14.397Z,2.25
2017-12-16T02:39:16.892Z,2.25
2017-12-16T02:40:19.347Z,2.49
2017-12-16T02:41:21.816Z,2.78
2017-12-16T02:42:24.270Z,2.69
2017-12-16T02:43:26.744Z,2.54
2017-12-16T02:44:29.227Z,2.43
2017-12-16T02:45:31.708Z,2.37
2017-12-16T02:46:34.166Z,2.31
2017-12-16T02:47:36.622Z,2.27
2017-12-16T02:48:39.074Z,2.25
2017-12-16T02:49:41.554Z,2.26
2017-12-16T02:50:44.053Z,2.37
2017-12-16T02:51:46.535Z,2.51
2017-12-16T02:52:49.096Z,2.59
2017-12-16T02:53:51.568Z,2.52
2017-12-16T02:54:54.047Z,2.70
2017-12-16T02:55:56.547Z,2.58
2017-12-16T02:56:59.078Z,2.50
2017-12-16T02:58:01.549Z,2.59
2017-12-16T02:59:04.007Z,2.54
2017-12-16T03:00:06.492Z,2.51
2017-12-16T03:01:08.967Z,2.55
2017-12-16T03:02:11.432Z,2.48
2017-12-16T03:03:13.905Z,2.51
2017-12-16T03:04:16.366Z,2.59
2017-12-16T03:05:18.848Z,2.49
2017-12-16T03:06:21.314Z,2.40
2017-12-16T03:07:23.770Z,2.32
2017-12-16T03:08:26.226Z,2.31
2017-12-16T03:09:28.707Z,2.33
2017-12-16T03:10:31.189Z,2.33
2017-12-16T03:11:33.654Z,2.45
2017-12-16T03:12:36.146Z,2.47
2017-12-16T03:13:38.607Z,2.56
2017-12-16T03:14:41.085Z,2.65
2017-12-16T03:15:43.581Z,2.63
2017-12-16T03:16:46.046Z,2.70
2017-12-16T03:17:48.516Z,2.58
2017-12-16T03:18:50.989Z,2.53
2017-12-16T03:19:53.459Z,2.47
2017-12-16T03:20:55.942Z,2.62
2017-12-16T03:21:58.527Z,2.88
2017-12-16T03:23:00.996Z,2.87
2017-12-16T03:24:03.450Z,2.90
2017-12-16T03:25:05.922Z,2.78
2017-12-16T03:26:08.404Z,2.65
2017-12-16T03:27:10.885Z,2.55
2017-12-16T03:28:13.343Z,2.49
2017-12-16T03:29:15.798Z,2.47
2017-12-16T03:30:18.260Z,2.45
2017-12-16T03:31:20.845Z,2.53
2017-12-16T03:32:23.326Z,2.63
2017-12-16T03:33:25.797Z,2.66
2017-12-16T03:34:28.274Z,2.59
2017-12-16T03:35:30.740Z,2.46
2017-12-16T03:36:33.232Z,2.69
2017-12-16T03:37:35.711Z,2.89
2017-12-16T03:38:38.184Z,2.91
2017-12-16T03:39:40.642Z,3.10
2017-12-16T03:40:43.094Z,3.04
2017-12-16T03:41:45.606Z,2.97
2017-12-16T03:42:48.072Z,2.86
2017-12-16T03:43:50.546Z,2.84
2017-12-16T03:44:53.002Z,2.79
2017-12-16T03:45:55.469Z,2.65
2017-12-16T03:46:57.985Z,2.57
2017-12-16T03:48:00.438Z,2.51
2017-12-16T03:49:02.917Z,2.49
2017-12-16T03:50:05.375Z,2.44
2017-12-16T03:51:07.851Z,2.38
2017-12-16T03:52:10.326Z,2.37
2017-12-16T03:53:12.792Z,2.29
2017-12-16T03:54:15.269Z,2.25
2017-12-16T03:55:17.731Z,2.18
2017-12-16T03:56:20.183Z,2.12
2017-12-16T03:57:22.676Z,2.05
2017-12-16T03:58:25.167Z,2.00
2017-12-16T03:59:27.627Z,1.97
2017-12-16T04:00:30.097Z,2.00
2017-12-16T04:01:32.568Z,2.00
2017-12-16T04:02:35.043Z,2.00
2017-12-16T04:03:37.498Z,2.16
2017-12-16T04:04:39.968Z,2.28
2017-12-16T04:05:42.441Z,2.27
2017-12-16T04:06:44.905Z,2.27
2017-12-16T04:07:47.412Z,2.21
2017-12-16T04:08:49.881Z,2.24
2017-12-16T04:09:52.359Z,2.25
2017-12-16T04:10:54.828Z,2.29
2017-12-16T04:11:57.288Z,2.52
2017-12-16T04:12:59.798Z,2.56
2017-12-16T04:14:02.277Z,2.49
2017-12-16T04:15:04.790Z,2.58
2017-12-16T04:16:07.250Z,2.66
2017-12-16T04:17:09.727Z,2.64
2017-12-16T04:18:12.222Z,2.70
2017-12-16T04:19:14.684Z,2.71
2017-12-16T04:20:17.139Z,2.57
2017-12-16T04:21:19.604Z,2.45
2017-12-16T04:22:22.077Z,2.38
2017-12-16T04:23:24.554Z,2.29
2017-12-16T04:24:27.035Z,2.27
2017-12-16T04:25:29.490Z,2.20
2017-12-16T04:26:31.951Z,2.14
2017-12-16T04:27:34.406Z,2.12
2017-12-16T04:28:36.901Z,2.10
2017-12-16T04:29:39.368Z,2.09
2017-12-16T04:30:41.842Z,2.08
2017-12-16T04:31:44.317Z,2.21
2017-12-16T04:32:46.813Z,2.18
2017-12-16T04:33:49.286Z,2.22
2017-12-16T04:34:51.736Z,2.28
2017-12-16T04:35:54.190Z,2.27
2017-12-16T04:36:56.673Z,2.37
2017-12-16T04:37:59.131Z,2.26
2017-12-16T04:39:01.624Z,2.15
2017-12-16T04:40:04.097Z,2.05
2017-12-16T04:41:06.570Z,1.99
2017-12-16T04:42:09.026Z,1.93
2017-12-16T04:43:11.492Z,1.89
2017-12-16T04:44:13.967Z,1.82
2017-12-16T04:45:16.472Z,1.78
2017-12-16T04:46:18.940Z,1.87
2017-12-16T04:47:21.412Z,2.00
2017-12-16T04:48:23.885Z,1.98
2017-12-16T04:49:26.359Z,1.99
2017-12-16T04:50:28.863Z,1.87
2017-12-16T04:51:31.337Z,1.88
2017-12-16T04:52:33.793Z,1.84
2017-12-16T04:53:36.261Z,1.83
2017-12-16T04:54:38.734Z,1.86
2017-12-16T04:55:41.209Z,1.86
2017-12-16T04:56:43.682Z,1.86
2017-12-16T04:57:46.156Z,2.17
2017-12-16T04:58:48.620Z,2.33
2017-12-16T04:59:51.101Z,2.21
2017-12-16T05:00:53.559Z,2.19
2017-12-16T05:01:56.021Z,2.16
2017-12-16T05:02:58.478Z,2.11
2017-12-16T05:04:00.942Z,2.10
2017-12-16T05:05:03.415Z,2.08
2017-12-16T05:06:05.932Z,2.08
2017-12-16T05:07:08.409Z,2.09
2017-12-16T05:08:10.862Z,2.08
2017-12-16T05:09:13.319Z,2.19
2017-12-16T05:10:15.804Z,2.16
2017-12-16T05:11:18.263Z,2.14
2017-12-16T05:12:20.738Z,2.12
2017-12-16T05:13:23.239Z,2.12
2017-12-16T05:14:25.695Z,2.25
2017-12-16T05:15:28.187Z,2.23
2017-12-16T05:16:30.665Z,2.23
2017-12-16T05:17:33.139Z,2.22
2017-12-16T05:18:35.602Z,2.24
2017-12-16T05:19:38.056Z,2.36
2017-12-16T05:20:40.546Z,2.35
2017-12-16T05:21:43.027Z,2.34
2017-12-16T05:22:45.503Z,2.32
2017-12-16T05:23:48.024Z,2.31
2017-12-16T05:24:50.479Z,2.36
2017-12-16T05:25:52.996Z,2.38
2017-12-16T05:26:55.473Z,2.38
2017-12-16T05:27:57.949Z,2.39
2017-12-16T05:29:00.416Z,2.44
2017-12-16T05:30:02.884Z,2.44
2017-12-16T05:31:05.380Z,2.44
2017-12-16T05:32:07.848Z,2.58
2017-12-16T05:33:10.346Z,2.60
2017-12-16T05:34:12.815Z,2.82
2017-12-16T05:35:15.271Z,2.69
2017-12-16T05:36:17.746Z,2.62
2017-12-16T05:37:20.221Z,2.59
2017-12-16T05:38:22.713Z,2.65
2017-12-16T05:39:25.161Z,2.67
2017-12-16T05:40:27.651Z,2.75
2017-12-16T05:41:30.144Z,2.66
2017-12-16T05:42:32.606Z,2.60
2017-12-16T05:43:35.059Z,2.59
2017-12-16T05:44:37.555Z,2.63
2017-12-16T05:45:40.029Z,2.72
2017-12-16T05:46:42.520Z,2.76
2017-12-16T05:47:44.992Z,2.77
2017-12-16T05:48:47.462Z,2.76
2017-12-16T05:49:49.942Z,2.81
2017-12-16T05:50:52.402Z,2.87
2017-12-16T05:51:54.874Z,2.86
2017-12-16T05:52:57.415Z,2.72
2017-12-16T05:53:59.885Z,2.79
2017-12-16T05:55:02.350Z,2.62
2017-12-16T05:56:04.816Z,2.56
2017-12-16T05:57:07.307Z,2.57
2017-12-16T05:58:09.777Z,2.60
2017-12-16T05:59:12.234Z,2.55
2017-12-16T06:00:14.698Z,2.51
2017-12-16T06:01:17.241Z,2.56
2017-12-16T06:02:19.723Z,2.52
2017-12-16T06:03:22.229Z,2.55
2017-12-16T06:04:24.700Z,2.59
2017-12-16T06:05:27.172Z,2.74
2017-12-16T06:06:29.649Z,2.63
2017-12-16T06:07:32.145Z,2.64
2017-12-16T06:08:34.612Z,2.58
2017-12-16T06:09:37.187Z,2.61
2017-12-16T06:10:39.641Z,2.62
2017-12-16T06:11:42.120Z,2.73
2017-12-16T06:12:44.594Z,2.92
2017-12-16T06:13:47.050Z,2.97
2017-12-16T06:14:49.520Z,2.96
2017-12-16T06:15:51.989Z,2.94
2017-12-16T06:16:54.446Z,2.92
2017-12-16T06:17:56.936Z,2.88
2017-12-16T06:18:59.391Z,2.88
2017-12-16T06:20:01.851Z,2.99
2017-12-16T06:21:04.319Z,3.02
2017-12-16T06:22:06.792Z,3.01
2017-12-16T06:23:09.266Z,2.92
2017-12-16T06:24:11.734Z,2.89
2017-12-16T06:25:14.209Z,2.88
2017-12-16T06:26:16.676Z,3.03
2017-12-16T06:27:19.154Z,3.07
2017-12-16T06:28:21.653Z,3.05
2017-12-16T06:29:24.111Z,3.05
2017-12-16T06:30:26.570Z,3.15
2017-12-16T06:31:29.023Z,3.11
2017-12-16T06:32:31.493Z,3.09
2017-12-16T06:33:33.966Z,3.18
2017-12-16T06:34:36.427Z,3.23
2017-12-16T06:35:38.917Z,3.26
2017-12-16T06:36:41.373Z,3.20
2017-12-16T06:37:43.850Z,3.08
2017-12-16T06:38:46.404Z,3.10
2017-12-16T06:39:48.970Z,3.04
2017-12-16T06:40:51.447Z,3.10
2017-12-16T06:41:54.648Z,3.05
2017-12-16T06:42:57.111Z,2.99
2017-12-16T06:43:59.600Z,3.09
2017-12-16T06:45:02.097Z,2.98
2017-12-16T06:46:04.554Z,3.08
2017-12-16T06:47:07.020Z,3.08
2017-12-16T06:48:09.489Z,3.12
2017-12-16T06:49:11.973Z,3.03
2017-12-16T06:50:14.430Z,3.06
2017-12-16T06:51:16.894Z,3.05
2017-12-16T06:52:19.364Z,3.17
2017-12-16T06:53:21.818Z,3.10
2017-12-16T06:54:24.316Z,3.22
2017-12-16T06:55:26.776Z,3.26
2017-12-16T06:56:29.249Z,3.25
2017-12-16T06:57:31.734Z,3.26
2017-12-16T06:58:34.198Z,3.25
2017-12-16T06:59:36.692Z,3.13
2017-12-16T07:00:39.150Z,3.23
2017-12-16T07:01:41.710Z,3.20
2017-12-16T07:02:44.171Z,3.35
2017-12-16T07:03:46.635Z,3.22
2017-12-16T07:04:49.108Z,3.22
2017-12-16T07:05:51.568Z,3.22
2017-12-16T07:06:54.038Z,3.16
2017-12-16T07:07:56.513Z,3.14
2017-12-16T07:08:58.987Z,3.11
2017-12-16T07:10:01.481Z,3.17
2017-12-16T07:11:03.960Z,3.33
2017-12-16T07:12:06.423Z,3.35
2017-12-16T07:13:08.952Z,3.24
2017-12-16T07:14:11.414Z,3.28
2017-12-16T07:15:14.192Z,3.41
2017-12-16T07:16:16.639Z,3.35
2017-12-16T07:17:19.094Z,3.23
2017-12-16T07:18:21.560Z,3.39
2017-12-16T07:19:24.012Z,3.26
2017-12-16T07:20:26.501Z,3.31
2017-12-16T07:21:28.973Z,3.53
2017-12-16T07:22:31.431Z,3.47
2017-12-16T07:23:33.886Z,3.46
2017-12-16T07:24:36.367Z,3.55
2017-12-16T07:25:38.860Z,3.64
2017-12-16T07:26:41.336Z,3.72
2017-12-16T07:27:43.815Z,3.71
2017-12-16T07:28:46.287Z,3.56
2017-12-16T07:29:48.782Z,3.63
2017-12-16T07:30:51.258Z,3.45
2017-12-16T07:31:53.731Z,3.44
2017-12-16T07:32:56.205Z,3.45
2017-12-16T07:33:58.666Z,3.39
2017-12-16T07:35:01.135Z,3.53
2017-12-16T07:36:03.635Z,3.37
2017-12-16T07:37:06.095Z,3.26
2017-12-16T07:38:08.560Z,3.20
2017-12-16T07:39:11.032Z,3.20
2017-12-16T07:40:14.570Z,3.24
2017-12-16T07:41:17.056Z,3.19
2017-12-16T07:42:19.518Z,3.46
2017-12-16T07:43:21.976Z,3.35
2017-12-16T07:44:24.440Z,3.58
2017-12-16T07:45:26.894Z,3.62
2017-12-16T07:46:29.370Z,3.51
2017-12-16T07:47:31.830Z,3.50
2017-12-16T07:48:34.300Z,3.33
2017-12-16T07:49:37.340Z,3.42
2017-12-16T07:50:39.825Z,3.43
2017-12-16T07:51:42.299Z,3.56
2017-12-16T07:52:44.790Z,3.65
2017-12-16T07:53:47.244Z,3.61
2017-12-16T07:54:49.713Z,3.58
2017-12-16T07:55:52.184Z,3.61
2017-12-16T07:56:54.681Z,3.47
2017-12-16T07:57:57.147Z,3.49
2017-12-16T07:58:59.652Z,3.50
2017-12-16T08:00:02.109Z,3.63
2017-12-16T08:01:04.566Z,3.79
2017-12-16T08:02:07.046Z,3.70
2017-12-16T08:03:09.498Z,3.63
2017-12-16T08:04:11.968Z,3.79
2017-12-16T08:05:14.441Z,3.63
2017-12-16T08:06:20.241Z,3.69
2017-12-16T08:07:22.726Z,3.68
2017-12-16T08:08:25.416Z,3.73
2017-12-16T08:09:28.419Z,3.51
2017-12-16T08:10:31.498Z,3.50
2017-12-16T08:11:33.973Z,3.63
2017-12-16T08:12:36.450Z,3.58
2017-12-16T08:13:38.916Z,3.77
2017-12-16T08:14:41.366Z,3.68
2017-12-16T08:15:43.832Z,3.72
2017-12-16T08:16:46.286Z,3.79
2017-12-16T08:17:48.770Z,3.71
2017-12-16T08:18:51.226Z,3.80
2017-12-16T08:19:53.817Z,3.65
2017-12-16T08:20:56.274Z,3.77
2017-12-16T08:21:58.836Z,3.82
2017-12-16T08:23:01.323Z,3.98
2017-12-16T08:24:03.792Z,3.81
2017-12-16T08:25:06.261Z,3.82
2017-12-16T08:26:08.725Z,3.71
2017-12-16T08:27:11.207Z,3.80
2017-12-16T08:28:13.717Z,3.89
2017-12-16T08:29:16.238Z,3.89
2017-12-16T08:30:18.704Z,3.78
2017-12-16T08:31:21.642Z,3.58
2017-12-16T08:32:24.504Z,3.66
2017-12-16T08:33:27.169Z,3.75
2017-12-16T08:34:30.029Z,3.81
2017-12-16T08:35:32.525Z,3.73
2017-12-16T08:36:34.981Z,3.93
2017-12-16T08:37:37.448Z,3.59
2017-12-16T08:38:39.926Z,3.68
2017-12-16T08:39:42.383Z,3.85
2017-12-16T08:40:44.888Z,3.88
2017-12-16T08:41:47.350Z,3.91
2017-12-16T08:42:49.802Z,4.00
2017-12-16T08:43:52.385Z,4.01
2017-12-16T08:44:54.822Z,3.93
2017-12-16T08:45:57.310Z,3.84
2017-12-16T08:47:00.071Z,3.81
2017-12-16T08:48:02.563Z,4.05
2017-12-16T08:49:05.073Z,4.17
2017-12-16T08:50:07.531Z,4.11
2017-12-16T08:51:10.005Z,4.05
2017-12-16T08:52:12.485Z,3.90
2017-12-16T08:53:14.949Z,4.04
2017-12-16T08:54:17.449Z,3.91
2017-12-16T08:55:19.935Z,3.92
2017-12-16T08:56:22.405Z,3.98
2017-12-16T08:57:24.877Z,3.98
2017-12-16T08:58:27.440Z,3.88
2017-12-16T08:59:29.933Z,3.89
2017-12-16T09:00:32.432Z,3.95
2017-12-16T09:01:34.904Z,3.81
2017-12-16T09:02:37.372Z,3.84
2017-12-16T09:03:39.836Z,3.88
2017-12-16T09:04:42.315Z,4.09
2017-12-16T09:05:44.808Z,4.17
2017-12-16T09:06:47.276Z,4.04
2017-12-16T09:07:49.735Z,4.07
2017-12-16T09:08:52.238Z,4.16
2017-12-16T09:09:54.722Z,3.93
2017-12-16T09:10:57.198Z,3.95
2017-12-16T09:11:59.663Z,4.08
2017-12-16T09:13:02.141Z,3.89
2017-12-16T09:14:04.599Z,4.05
2017-12-16T09:15:07.146Z,4.22
2017-12-16T09:16:09.620Z,4.30
2017-12-16T09:17:12.079Z,4.32
2017-12-16T09:18:14.567Z,4.38
2017-12-16T09:19:17.030Z,4.30
2017-12-16T09:20:19.529Z,4.16
2017-12-16T09:21:22.007Z,4.01
2017-12-16T09:22:24.476Z,4.30
2017-12-16T09:23:26.943Z,4.49
2017-12-16T09:24:29.437Z,4.45
2017-12-16T09:25:32.028Z,4.80
2017-12-16T09:26:34.492Z,4.53
2017-12-16T09:27:36.972Z,4.68
2017-12-16T09:28:39.479Z,4.67
2017-12-16T09:29:41.944Z,4.63
2017-12-16T09:30:44.431Z,4.47
2017-12-16T09:31:46.896Z,4.48
2017-12-16T09:32:49.354Z,4.43
2017-12-16T09:33:51.810Z,4.14
2017-12-16T09:34:54.267Z,4.25
2017-12-16T09:35:56.746Z,4.58
2017-12-16T09:36:59.220Z,4.62
2017-12-16T09:38:01.696Z,4.48
2017-12-16T09:39:04.154Z,4.45
2017-12-16T09:40:06.629Z,4.42
2017-12-16T09:41:09.127Z,4.31
2017-12-16T09:42:11.586Z,4.27
2017-12-16T09:43:14.043Z,4.25
2017-12-16T09:44:16.502Z,3.98
2017-12-16T09:45:18.972Z,3.94
2017-12-16T09:47:29.722Z,4.31
2017-12-16T09:48:32.388Z,4.53
2017-12-16T09:49:34.876Z,5.05
2017-12-16T09:50:37.353Z,5.05
2017-12-16T09:51:40.860Z,5.00
2017-12-16T09:52:46.326Z,5.42
2017-12-16T09:53:48.885Z,5.40
2017-12-16T09:54:51.359Z,5.74
2017-12-16T09:55:53.837Z,5.67
2017-12-16T09:56:57.392Z,6.25
2017-12-16T09:58:01.395Z,6.68
2017-12-16T09:59:03.859Z,6.36
2017-12-16T10:00:06.327Z,6.23
2017-12-16T10:01:08.798Z,6.58
2017-12-16T10:02:11.262Z,6.50
2017-12-16T10:03:13.818Z,6.26
2017-12-16T10:04:16.286Z,6.86
2017-12-16T10:05:18.880Z,7.11
2017-12-16T10:06:21.339Z,7.49
2017-12-16T10:07:23.806Z,8.22
2017-12-16T10:08:26.268Z,8.05
2017-12-16T10:09:28.765Z,9.05
2017-12-16T10:10:31.234Z,8.95
2017-12-16T10:11:33.709Z,10.12
2017-12-16T10:12:36.193Z,10.04
2017-12-16T10:13:38.705Z,9.63
2017-12-16T10:14:41.233Z,10.26
2017-12-16T10:15:43.825Z,9.92
2017-12-16T10:16:46.290Z,10.20
2017-12-16T10:17:48.761Z,10.20
2017-12-16T10:18:51.236Z,9.30
2017-12-16T10:19:53.698Z,9.04
2017-12-16T10:20:56.177Z,9.21
2017-12-16T10:21:59.961Z,9.28
2017-12-16T10:23:02.506Z,9.94
2017-12-16T10:24:04.980Z,9.78
2017-12-16T10:25:07.464Z,10.18
2017-12-16T10:26:09.945Z,10.79
2017-12-16T10:27:12.408Z,9.71
2017-12-16T10:28:18.147Z,9.64
2017-12-16T10:29:20.647Z,9.85
2017-12-16T10:30:23.129Z,10.09
2017-12-16T10:31:25.613Z,10.07
2017-12-16T10:32:28.081Z,11.04
2017-12-16T10:33:30.826Z,11.73
2017-12-16T10:34:34.185Z,11.04
2017-12-16T10:35:36.663Z,11.32
2017-12-16T10:36:39.141Z,10.74
2017-12-16T10:37:42.015Z,10.29
2017-12-16T10:38:44.687Z,10.55
2017-12-16T10:39:47.164Z,9.73
2017-12-16T10:40:49.640Z,9.99
2017-12-16T10:41:52.117Z,11.51
2017-12-16T10:42:54.608Z,12.79
2017-12-16T10:43:57.088Z,11.87
2017-12-16T10:44:59.635Z,11.96
2017-12-16T10:46:02.094Z,10.88
2017-12-16T10:47:04.576Z,11.65
2017-12-16T10:48:07.042Z,11.03
2017-12-16T10:49:09.520Z,10.62
2017-12-16T10:50:11.989Z,10.40
2017-12-16T10:51:14.465Z,9.73
2017-12-16T10:52:16.929Z,9.70
2017-12-16T10:53:19.404Z,9.74
2017-12-16T10:54:21.871Z,10.67
2017-12-16T10:55:24.476Z,11.30
2017-12-16T10:56:26.960Z,11.60
2017-12-16T10:57:29.427Z,11.26
2017-12-16T10:58:31.895Z,10.75
2017-12-16T10:59:34.465Z,10.72
2017-12-16T11:00:37.244Z,10.21
2017-12-16T11:01:40.742Z,9.12
2017-12-16T11:02:44.129Z,8.85
2017-12-16T11:03:47.408Z,9.33
2017-12-16T11:04:49.981Z,9.29
2017-12-16T11:05:52.461Z,9.33
2017-12-16T11:06:54.997Z,9.12
2017-12-16T11:07:57.463Z,8.55
2017-12-16T11:08:59.942Z,8.07
2017-12-16T11:10:02.418Z,7.40
2017-12-16T11:11:04.904Z,7.31
2017-12-16T11:12:07.595Z,7.33
2017-12-16T11:13:10.059Z,7.65
2017-12-16T11:14:12.534Z,7.41
2017-12-16T11:15:15.650Z,6.91
2017-12-16T11:16:18.445Z,6.93
2017-12-16T11:17:20.903Z,6.89
2017-12-16T11:18:23.688Z,6.51
2017-12-16T11:19:26.343Z,6.48
2017-12-16T11:20:29.695Z,6.98
2017-12-16T11:21:32.154Z,7.69
2017-12-16T11:22:34.614Z,8.35
2017-12-16T11:23:37.091Z,8.54
2017-12-16T11:24:39.583Z,8.41
2017-12-16T11:25:42.054Z,8.30
2017-12-16T11:26:44.511Z,8.46
2017-12-16T11:27:46.987Z,8.28
2017-12-16T11:28:49.459Z,8.34
2017-12-16T11:29:52.099Z,8.19
2017-12-16T11:30:54.579Z,8.18
2017-12-16T11:31:57.038Z,8.36
2017-12-16T11:32:59.508Z,8.58
2017-12-16T11:34:02.279Z,8.57
2017-12-16T11:35:04.763Z,9.06
2017-12-16T11:36:07.236Z,9.76
2017-12-16T11:37:09.738Z,10.57
2017-12-16T11:38:12.199Z,10.61
2017-12-16T11:39:14.658Z,11.02
2017-12-16T11:40:17.138Z,10.39
2017-12-16T11:41:19.621Z,10.81
2017-12-16T11:42:22.112Z,12.21
2017-12-16T11:43:24.584Z,13.37
2017-12-16T11:44:27.061Z,14.98
2017-12-16T11:45:29.549Z,14.83
2017-12-16T11:46:32.032Z,14.61
2017-12-16T11:47:34.499Z,13.41
2017-12-16T11:48:36.973Z,12.25
2017-12-16T11:49:39.444Z,12.27
2017-12-16T11:50:41.907Z,12.43
2017-12-16T11:51:44.402Z,12.73
2017-12-16T11:52:47.133Z,12.19
2017-12-16T11:53:49.688Z,10.65
2017-12-16T11:54:52.160Z,10.44
2017-12-16T11:55:54.640Z,10.15
2017-12-16T11:56:57.113Z,8.51
2017-12-16T11:57:59.622Z,9.42
2017-12-16T11:59:02.101Z,9.24
2017-12-16T12:00:04.579Z,8.72
2017-12-16T12:01:07.048Z,8.47
2017-12-16T12:02:09.515Z,8.27
2017-12-16T12:03:11.980Z,9.59
2017-12-16T12:04:14.449Z,10.80
2017-12-16T12:05:16.928Z,12.55
2017-12-16T12:06:19.395Z,13.32
2017-12-16T12:07:21.873Z,13.82
2017-12-16T12:08:24.350Z,14.73
2017-12-16T12:09:26.827Z,13.75
2017-12-16T12:10:29.286Z,13.17
2017-12-16T12:11:32.599Z,12.47
2017-12-16T12:12:35.073Z,12.83
2017-12-16T12:13:37.629Z,12.35
2017-12-16T12:14:40.123Z,12.52
2017-12-16T12:15:42.599Z,12.57
2017-12-16T12:16:45.069Z,13.26
2017-12-16T12:17:47.536Z,13.61
2017-12-16T12:18:50.020Z,12.27
2017-12-16T12:19:52.548Z,10.69
2017-12-16T12:20:54.970Z,9.84
2017-12-16T12:21:57.829Z,9.88
2017-12-16T12:23:00.294Z,9.05
2017-12-16T12:24:02.801Z,9.24
2017-12-16T12:25:05.339Z,9.67
2017-12-16T12:26:07.821Z,10.99
2017-12-16T12:27:10.301Z,11.53
2017-12-16T12:28:12.844Z,10.96
2017-12-16T12:29:15.311Z,10.79
2017-12-16T12:30:17.787Z,10.06
2017-12-16T12:31:20.266Z,10.55
2017-12-16T12:32:22.728Z,9.93
2017-12-16T12:33:25.216Z,10.02
2017-12-16T12:34:27.675Z,9.99
2017-12-16T12:35:30.135Z,10.43
2017-12-16T12:36:32.607Z,11.38
2017-12-16T12:37:35.140Z,12.06
2017-12-16T12:38:37.633Z,12.59
2017-12-16T12:39:40.110Z,12.36
2017-12-16T12:40:42.583Z,11.23
2017-12-16T12:41:45.060Z,10.68
2017-12-16T12:42:47.526Z,9.76
2017-12-16T12:43:49.978Z,9.84
2017-12-16T12:44:53.697Z,9.77
2017-12-16T12:45:56.259Z,9.34
2017-12-16T12:46:58.733Z,8.78
2017-12-16T12:48:01.272Z,8.56
2017-12-16T12:49:03.745Z,8.16
2017-12-16T12:50:06.198Z,8.54
2017-12-16T12:51:08.676Z,8.48
2017-12-16T12:52:11.150Z,8.01
2017-12-16T12:53:13.599Z,7.48
2017-12-16T12:54:16.098Z,7.57
2017-12-16T12:55:18.583Z,7.36
2017-12-16T12:56:21.050Z,7.78
2017-12-16T12:57:23.526Z,7.55
2017-12-16T12:58:26.025Z,7.74
2017-12-16T12:59:28.494Z,8.10
2017-12-16T13:00:30.957Z,8.30
2017-12-16T13:01:33.411Z,8.13
2017-12-16T13:02:35.877Z,8.15
2017-12-16T13:03:38.336Z,7.73
2017-12-16T13:04:40.787Z,8.03
2017-12-16T13:05:43.257Z,8.07
2017-12-16T13:06:45.718Z,7.92
2017-12-16T13:07:48.165Z,8.14
2017-12-16T13:08:50.620Z,8.18
2017-12-16T13:09:53.089Z,8.31
2017-12-16T13:10:55.548Z,7.98
2017-12-16T13:11:58.007Z,7.51
2017-12-16T13:13:00.456Z,7.47
2017-12-16T13:14:02.923Z,7.42
2017-12-16T13:15:05.405Z,7.36
2017-12-16T13:16:07.890Z,7.26
2017-12-16T13:17:10.352Z,7.43
2017-12-16T13:18:12.825Z,7.52
2017-12-16T13:19:15.292Z,6.82
2017-12-16T13:20:17.772Z,6.89
2017-12-16T13:21:20.245Z,6.71
2017-12-16T13:22:22.781Z,6.71
2017-12-16T13:23:25.239Z,6.86
2017-12-16T13:24:27.704Z,6.76
2017-12-16T13:25:30.176Z,6.56
2017-12-16T13:26:32.650Z,6.44
2017-12-16T13:27:35.185Z,6.63
2017-12-16T13:28:37.638Z,6.67
2017-12-16T13:29:40.096Z,6.59
2017-12-16T13:30:42.587Z,6.88
2017-12-16T13:31:45.052Z,6.96
2017-12-16T13:32:47.518Z,6.82
2017-12-16T13:33:49.988Z,6.58
2017-12-16T13:34:52.460Z,6.74
2017-12-16T13:35:54.927Z,7.02
2017-12-16T13:36:57.383Z,7.32
2017-12-16T13:37:59.859Z,7.29
2017-12-16T13:39:02.333Z,7.47
2017-12-16T13:40:04.790Z,7.21
2017-12-16T13:41:07.282Z,7.04
2017-12-16T13:42:09.752Z,7.31
2017-12-16T13:43:12.223Z,7.38
2017-12-16T13:44:15.433Z,7.17
2017-12-16T13:45:17.912Z,7.00
2017-12-16T13:46:20.392Z,6.90
2017-12-16T13:47:22.865Z,6.72
2017-12-16T13:48:25.319Z,6.68
2017-12-16T13:49:27.795Z,6.62
2017-12-16T13:50:30.265Z,6.57